Time;durP1;ratioP1;P1;durP2;ratioP2;P2;SDS_P1;SDS_P2;PMS_P1;PMS_P2;Temp;Humidity;BMP_temperature;BMP_pressure;BME280_temperature;BME280_humidity;BME280_pressure;Samples;Min_cycle;Max_cycle;Signal;HPM_P1;HPM_P2
2021/01/14 00:00:36;;;;;;;17.00;2.75;;;2.80;99.90;;;;;;12977950;22;20020;-93
2021/01/14 00:05:39;;;;;;;9.55;2.45;;;2.80;99.90;;;;;;13002969;22;20046;-93
2021/01/14 00:10:41;;;;;;;6.25;2.17;;;2.80;99.90;;;;;;12951995;22;20102;-93
2021/01/14 00:15:42;;;;;;;;;;;2.70;99.90;;;;;;12976688;22;20034;-93
2021/01/14 00:20:44;;;;;;;5.88;1.48;;;2.70;99.90;;;;;;12978707;22;19915;-93
2021/01/14 00:25:45;;;;;;;6.78;1.88;;;2.70;99.90;;;;;;12953126;22;20021;-93
2021/01/14 00:30:47;;;;;;;13.32;1.67;;;2.60;99.90;;;;;;12952029;22;20356;-93
2021/01/14 00:35:48;;;;;;;19.08;2.38;;;2.60;99.90;;;;;;12952071;22;20022;-93
2021/01/14 00:40:50;;;;;;;4.90;1.50;;;2.60;99.90;;;;;;12976405;22;20102;-93
2021/01/14 00:45:51;;;;;;;11.20;1.65;;;2.60;99.90;;;;;;12976274;22;20030;-93
2021/01/14 00:50:53;;;;;;;11.27;2.53;;;2.50;99.90;;;;;;12976252;22;20031;-93
2021/01/14 00:55:54;;;;;;;7.10;2.03;;;2.50;99.90;;;;;;12976440;22;20020;-93
2021/01/14 01:00:56;;;;;;;5.40;1.77;;;2.40;99.90;;;;;;12976282;22;20102;-93
2021/01/14 01:05:57;;;;;;;9.57;1.55;;;2.20;99.90;;;;;;12975755;22;20030;-92
2021/01/14 01:10:59;;;;;;;16.65;2.45;;;2.10;99.90;;;;;;12976320;22;20023;-93
2021/01/14 01:16:00;;;;;;;6.47;1.50;;;2.00;99.90;;;;;;12975934;22;20026;-93
2021/01/14 01:21:04;;;;;;;9.55;1.33;;;1.90;99.90;;;;;;12977031;22;20020;-93
2021/01/14 01:26:06;;;;;;;5.75;1.27;;;1.80;99.90;;;;;;13004949;22;20030;-93
2021/01/14 01:31:10;;;;;;;8.43;1.45;;;1.70;99.90;;;;;;12979881;22;20038;-93
2021/01/14 01:36:13;;;;;;;4.72;1.05;;;1.60;99.90;;;;;;13004753;22;20015;-93
2021/01/14 01:41:16;;;;;;;6.90;1.40;;;1.60;99.90;;;;;;13004081;22;20318;-93
2021/01/14 01:46:31;;;;;;;8.20;1.85;;;1.50;99.90;;;;;;12980529;22;20026;-93
2021/01/14 01:51:41;;;;;;;5.65;1.15;;;1.50;99.90;;;;;;13004920;22;20030;-93
2021/01/14 01:56:42;;;;;;;12.00;1.38;;;1.40;99.90;;;;;;13005519;22;20026;-93
2021/01/14 02:01:44;;;;;;;4.95;1.17;;;1.50;99.90;;;;;;12980918;22;20098;-93
2021/01/14 02:07:02;;;;;;;;;;;1.40;99.90;;;;;;12981059;22;20064;-93
2021/01/14 02:12:04;;;;;;;7.03;1.45;;;1.40;99.90;;;;;;13004341;22;19922;-93
2021/01/14 02:17:06;;;;;;;7.28;1.60;;;1.50;99.90;;;;;;13004919;22;20015;-93
2021/01/14 02:22:18;;;;;;;;;;;1.50;99.90;;;;;;13030702;22;20085;-93
2021/01/14 02:27:21;;;;;;;7.57;1.70;;;1.50;99.90;;;;;;13004146;22;19914;-93
2021/01/14 02:32:23;;;;;;;4.88;1.73;;;1.40;99.90;;;;;;12980130;22;20028;-93
2021/01/14 02:37:24;;;;;;;7.53;2.05;;;1.40;99.90;;;;;;12978830;22;20038;-93
2021/01/14 02:42:26;;;;;;;14.63;1.20;;;1.50;99.90;;;;;;12954600;22;20041;-93
2021/01/14 02:47:30;;;;;;;;;;;1.50;99.90;;;;;;12979614;22;20015;-93
2021/01/14 02:52:35;;;;;;;4.50;1.40;;;1.50;99.90;;;;;;13004146;22;19938;-93
2021/01/14 02:57:39;;;;;;;5.38;1.23;;;1.60;99.90;;;;;;13003054;22;20027;-92
2021/01/14 03:02:40;;;;;;;5.93;0.98;;;1.60;99.90;;;;;;13029405;22;20102;-93
2021/01/14 03:07:42;;;;;;;8.77;1.35;;;1.50;99.90;;;;;;13003473;22;20023;-92
2021/01/14 03:12:43;;;;;;;11.00;1.10;;;1.50;99.90;;;;;;12978001;22;20051;-92
2021/01/14 03:17:44;;;;;;;6.30;1.10;;;1.50;99.90;;;;;;13003109;22;20344;-93
2021/01/14 03:22:46;;;;;;;7.80;1.35;;;1.40;99.90;;;;;;12978662;22;20043;-93
2021/01/14 03:27:47;;;;;;;2.38;1.20;;;1.30;99.90;;;;;;12977697;22;20035;-92
2021/01/14 03:32:55;;;;;;;9.43;1.42;;;1.30;99.90;;;;;;12978129;22;20043;-93
2021/01/14 03:37:57;;;;;;;1.15;0.98;;;1.20;99.90;;;;;;12979006;22;20019;-93
2021/01/14 03:42:58;;;;;;;6.28;1.58;;;1.20;99.90;;;;;;12977604;22;20023;-93
2021/01/14 03:48:00;;;;;;;3.72;1.38;;;1.00;99.90;;;;;;13002041;22;20344;-93
2021/01/14 03:53:01;;;;;;;;;;;1.00;99.90;;;;;;12977043;22;20016;-93
2021/01/14 03:58:03;;;;;;;3.80;1.15;;;1.00;99.90;;;;;;13028189;22;19934;-93
2021/01/14 04:03:04;;;;;;;10.98;1.33;;;1.00;99.90;;;;;;13004166;22;20039;-93
2021/01/14 04:08:06;;;;;;;6.72;1.20;;;0.90;99.90;;;;;;12951849;22;20026;-93
2021/01/14 04:13:08;;;;;;;7.68;1.10;;;0.70;99.90;;;;;;12977042;22;20023;-93
2021/01/14 04:18:10;;;;;;;3.15;1.10;;;0.70;99.90;;;;;;12953488;22;20016;-93
2021/01/14 04:23:12;;;;;;;2.40;1.23;;;0.60;99.90;;;;;;13002022;22;20023;-93
2021/01/14 04:28:16;;;;;;;4.00;1.38;;;0.60;99.90;;;;;;13001310;22;20027;-93
2021/01/14 04:33:18;;;;;;;4.80;1.27;;;0.60;99.90;;;;;;13026470;22;20016;-93
2021/01/14 04:38:21;;;;;;;;;;;0.60;99.90;;;;;;12950999;22;20019;-93
2021/01/14 04:43:27;;;;;;;2.78;1.08;;;0.60;99.90;;;;;;13026899;22;19985;-93
2021/01/14 04:48:36;;;;;;;7.00;1.52;;;0.60;99.90;;;;;;13001734;22;20019;-94
2021/01/14 04:53:45;;;;;;;4.38;1.10;;;0.60;99.90;;;;;;12981061;22;20015;-93
2021/01/14 04:58:51;;;;;;;4.82;0.80;;;0.60;99.90;;;;;;13003454;22;20039;-93
2021/01/14 05:03:54;;;;;;;3.83;1.00;;;0.40;99.90;;;;;;12981234;22;20377;-93
2021/01/14 05:09:06;;;;;;;3.65;0.88;;;0.40;99.90;;;;;;13007285;22;20023;-93
2021/01/14 05:14:08;;;;;;;4.28;1.13;;;0.30;99.90;;;;;;12980439;22;20460;-93
2021/01/14 05:19:10;;;;;;;5.38;1.17;;;0.40;99.90;;;;;;12980582;22;20084;-93
2021/01/14 05:24:13;;;;;;;;;;;0.30;99.90;;;;;;13006807;22;20030;-93
2021/01/14 05:29:18;;;;;;;4.20;1.40;;;0.40;99.90;;;;;;13006235;22;20316;-94
2021/01/14 05:34:19;;;;;;;2.08;0.93;;;0.40;99.90;;;;;;13004906;22;20482;-93
2021/01/14 05:39:23;;;;;;;5.78;1.00;;;0.40;99.90;;;;;;12979800;22;20023;-93
2021/01/14 05:44:39;;;;;;;3.17;1.30;;;0.40;99.90;;;;;;12978806;22;20085;-94
2021/01/14 14:44:52;;;;;;;;;;;2.00;99.90;;;;;;12992864;22;20023;-93
2021/01/14 14:49:54;;;;;;;5.15;4.10;;;2.00;99.90;;;;;;12940446;22;20325;-93
2021/01/14 14:54:56;;;;;;;7.18;4.75;;;2.00;99.90;;;;;;12915944;22;20041;-92
2021/01/14 14:59:58;;;;;;;8.10;5.50;;;1.90;99.90;;;;;;12940377;22;20469;-93
2021/01/14 15:04:59;;;;;;;6.03;5.32;;;1.90;99.90;;;;;;12916110;22;20023;-93
2021/01/14 15:10:01;;;;;;;10.07;6.72;;;1.80;99.90;;;;;;12915324;22;20077;-92
2021/01/14 15:15:03;;;;;;;8.43;6.60;;;1.90;99.90;;;;;;12915258;22;20077;-93
2021/01/14 15:20:06;;;;;;;10.00;6.88;;;1.80;99.90;;;;;;12940725;22;20024;-93
2021/01/14 15:25:08;;;;;;;13.43;8.00;;;1.80;99.90;;;;;;12915693;22;20035;-93
2021/01/14 15:30:12;;;;;;;10.45;7.32;;;1.70;99.90;;;;;;12916011;22;20043;-93
2021/01/14 15:35:18;;;;;;;10.93;7.93;;;1.60;99.90;;;;;;12939498;22;20078;-93
2021/01/14 15:40:24;;;;;;;10.95;7.78;;;1.60;99.90;;;;;;12949703;22;20019;-94
2021/01/14 15:45:25;;;;;;;14.45;7.75;;;1.40;99.90;;;;;;13004507;22;20019;-94
2021/01/14 15:50:27;;;;;;;15.75;6.85;;;1.50;99.90;;;;;;13002750;22;20030;-93
2021/01/14 15:55:28;;;;;;;13.98;7.75;;;1.40;99.90;;;;;;12977520;22;20015;-93
2021/01/14 16:00:30;;;;;;;14.23;8.05;;;1.40;99.90;;;;;;13002763;22;20021;-94
2021/01/14 16:05:32;;;;;;;13.55;7.07;;;1.40;99.90;;;;;;13027944;22;20518;-95
2021/01/14 16:10:34;;;;;;;;;;;1.30;99.90;;;;;;13003723;22;20035;-94
2021/01/14 16:15:35;;;;;;;12.70;8.02;;;1.30;99.90;;;;;;12978557;22;19914;-95
2021/01/14 16:40:54;;;;;;;13.27;8.70;;;1.20;99.90;;;;;;12622610;23;20025;-94
2021/01/14 16:58:56;;;;;;;11.68;8.00;;;1.00;99.90;;;;;;12763942;23;20100;-95
2021/01/14 17:03:58;;;;;;;;;;;1.00;99.90;;;;;;12780048;23;20081;-93
2021/01/14 17:08:59;;;;;;;10.38;7.88;;;1.00;99.90;;;;;;12920710;22;19915;-93
2021/01/14 17:14:01;;;;;;;14.75;8.07;;;0.90;99.90;;;;;;12914963;22;20039;-95
2021/01/14 17:19:03;;;;;;;10.32;7.85;;;0.90;99.90;;;;;;12973012;22;20042;-95
2021/01/14 17:24:05;;;;;;;12.02;7.40;;;0.90;99.90;;;;;;12971042;22;20024;-95
2021/01/14 17:29:07;;;;;;;11.25;7.78;;;0.80;99.90;;;;;;12945129;22;20030;-95
2021/01/14 17:34:09;;;;;;;12.20;7.05;;;0.80;99.90;;;;;;12972621;22;20444;-95
2021/01/14 17:39:11;;;;;;;8.02;5.90;;;0.80;99.90;;;;;;12984505;22;20051;-95
2021/01/14 17:44:12;;;;;;;13.38;7.57;;;0.70;99.90;;;;;;13034172;22;20026;-95
2021/01/14 17:49:14;;;;;;;11.20;7.40;;;0.70;99.90;;;;;;12960269;22;20026;-95
2021/01/14 17:54:16;;;;;;;11.45;6.90;;;0.70;99.90;;;;;;13034755;22;20015;-95
2021/01/14 17:59:20;;;;;;;10.90;6.53;;;0.60;99.90;;;;;;13035586;22;20184;-95
2021/01/14 18:04:22;;;;;;;11.77;7.05;;;0.50;99.90;;;;;;12983036;22;20023;-95
2021/01/14 18:09:23;;;;;;;;;;;0.40;99.90;;;;;;13006304;22;20317;-95
2021/01/14 18:14:25;;;;;;;11.48;7.00;;;0.40;99.90;;;;;;12979773;22;19915;-94
2021/01/14 18:19:26;;;;;;;;;;;0.40;99.90;;;;;;12955877;22;20015;-95
2021/01/14 18:24:28;;;;;;;13.97;8.20;;;0.30;99.90;;;;;;13005668;22;19964;-95
2021/01/14 18:29:30;;;;;;;11.50;7.60;;;0.20;99.90;;;;;;13030344;22;20094;-95
2021/01/14 18:34:32;;;;;;;;;;;0.10;99.90;;;;;;12980696;22;20436;-95
2021/01/14 18:39:33;;;;;;;11.77;7.35;;;0.10;99.90;;;;;;12979339;22;19927;-95
2021/01/14 18:44:35;;;;;;;12.05;9.32;;;0.00;99.90;;;;;;13030424;22;20019;-95
2021/01/14 18:49:36;;;;;;;16.20;9.32;;;0.00;99.90;;;;;;12979986;22;20463;-96
2021/01/14 18:54:39;;;;;;;;;;;-0.10;99.90;;;;;;12980409;22;20015;-95
2021/01/14 18:59:40;;;;;;;14.73;9.27;;;-0.10;99.90;;;;;;13003808;22;19945;-95
2021/01/14 19:04:43;;;;;;;19.42;10.40;;;-0.20;99.90;;;;;;13003970;22;20387;-95
2021/01/14 19:09:45;;;;;;;;;;;-0.30;99.90;;;;;;13004648;22;20025;-95
2021/01/14 19:14:47;;;;;;;;;;;-0.30;99.90;;;;;;12978040;22;19944;-95
2021/01/14 19:19:52;;;;;;;14.48;9.90;;;-0.30;99.90;;;;;;13000209;22;19945;-96
2021/01/14 19:24:53;;;;;;;18.55;9.27;;;-0.40;99.90;;;;;;13028866;22;20023;-96
2021/01/14 19:29:55;;;;;;;;;;;-0.40;99.90;;;;;;12953872;22;20479;-95
2021/01/14 19:34:56;;;;;;;19.98;12.05;;;-0.40;99.90;;;;;;13003117;22;19993;-96
2021/01/14 19:39:58;;;;;;;15.80;10.77;;;-0.40;99.90;;;;;;13003538;22;20027;-96
2021/01/14 19:44:59;;;;;;;;;;;-0.40;99.90;;;;;;13003532;22;20460;-95
2021/01/14 19:50:06;;;;;;;18.52;10.65;;;-0.40;99.90;;;;;;13001004;22;19919;-95
2021/01/14 19:55:09;;;;;;;16.40;9.95;;;-0.60;99.90;;;;;;12978021;22;20467;-96
2021/01/14 20:00:12;;;;;;;19.27;11.57;;;-0.70;99.90;;;;;;13002360;22;20019;-94
2021/01/14 20:05:14;;;;;;;19.58;10.95;;;-0.70;99.90;;;;;;13003151;22;20023;-94
2021/01/14 20:10:15;;;;;;;18.42;11.48;;;-0.90;99.90;;;;;;13002300;22;20031;-93
2021/01/14 20:15:17;;;;;;;;;;;-1.00;99.90;;;;;;13003744;22;20019;-94
2021/01/14 20:20:19;;;;;;;19.83;10.88;;;-0.90;99.90;;;;;;13002732;22;19922;-94
2021/01/14 20:25:22;;;;;;;18.25;11.55;;;-0.80;99.90;;;;;;12978326;22;20015;-94
2021/01/14 22:35:45;;;;;;;19.98;12.90;;;-0.60;99.90;;;;;;12987973;22;20027;-91
2021/01/14 22:40:48;;;;;;;;;;;-0.80;99.90;;;;;;12979928;22;20019;-91
2021/01/14 22:45:50;;;;;;;25.42;14.70;;;-1.00;99.90;;;;;;13004489;22;19922;-91
2021/01/14 22:50:52;;;;;;;;;;;-1.00;99.90;;;;;;12978680;22;20424;-91
2021/01/14 22:55:53;;;;;;;21.50;13.45;;;-1.00;99.90;;;;;;13002802;22;19922;-90
2021/01/14 23:00:55;;;;;;;28.70;17.75;;;-1.00;99.90;;;;;;12953036;22;20019;-91
2021/01/14 23:05:57;;;;;;;20.05;13.02;;;-1.20;99.90;;;;;;12978131;22;20023;-91
2021/01/14 23:11:00;;;;;;;20.50;13.05;;;-1.20;99.90;;;;;;12977811;22;20456;-90
2021/01/14 23:16:02;;;;;;;17.13;11.82;;;-1.30;99.90;;;;;;12978575;22;20072;-90
2021/01/14 23:21:04;;;;;;;23.48;15.65;;;-1.40;99.90;;;;;;12977832;22;20019;-90
2021/01/14 23:26:06;;;;;;;18.88;11.55;;;-1.40;99.90;;;;;;12952540;22;20403;-89
2021/01/14 23:31:08;;;;;;;19.73;13.02;;;-1.30;99.90;;;;;;12976632;22;20110;-89
2021/01/14 23:36:10;;;;;;;22.20;12.60;;;-1.30;99.90;;;;;;13001870;22;20019;-89
2021/01/14 23:41:20;;;;;;;22.65;12.30;;;-1.40;99.90;;;;;;12976696;22;20389;-89
2021/01/14 23:46:23;;;;;;;18.42;11.65;;;-1.30;99.90;;;;;;12977148;22;20023;-89
2021/01/14 23:51:25;;;;;;;23.38;13.50;;;-1.30;99.90;;;;;;13003172;22;20023;-89
2021/01/14 23:56:26;;;;;;;;;;;-1.30;99.90;;;;;;12951816;22;20022;-89
